Time;durP1;ratioP1;P1;durP2;ratioP2;P2;SDS_P1;SDS_P2;PMS_P1;PMS_P2;Temp;Humidity;BMP_temperature;BMP_pressure;BME280_temperature;BME280_humidity;BME280_pressure;Samples;Min_cycle;Max_cycle;Signal;HPM_P1;HPM_P2
2021/08/02 00:01:07;;;;;;;0.85;0.60;;;24.80;52.80;;;;;;5018271;28;20053;-62
2021/08/02 00:03:51;;;;;;;1.40;0.77;;;24.80;52.80;;;;;;5021407;28;20112;-65
2021/08/02 00:06:21;;;;;;;1.23;0.80;;;24.80;52.80;;;;;;5023095;28;20089;-63
2021/08/02 00:08:55;;;;;;;0.70;0.63;;;24.80;52.80;;;;;;5016246;28;20380;-64
2021/08/02 00:11:23;;;;;;;1.80;0.90;;;24.80;52.80;;;;;;5017176;28;20025;-65
2021/08/02 00:13:51;;;;;;;1.15;0.80;;;24.80;52.80;;;;;;5023655;28;20628;-62
2021/08/02 00:16:17;;;;;;;1.10;0.80;;;24.80;52.80;;;;;;5019111;28;20037;-65
2021/08/02 00:18:43;;;;;;;0.70;0.70;;;24.80;52.80;;;;;;5018666;28;20029;-63
2021/08/02 00:21:08;;;;;;;1.13;0.68;;;24.80;52.80;;;;;;5012310;28;20037;-63
2021/08/02 00:23:34;;;;;;;0.95;0.70;;;24.80;52.80;;;;;;5019628;28;20152;-67
2021/08/02 00:26:03;;;;;;;0.90;0.70;;;24.80;52.80;;;;;;5020756;28;20021;-63
2021/08/02 00:28:30;;;;;;;1.50;0.95;;;24.80;52.80;;;;;;5016160;28;20490;-64
2021/08/02 00:44:26;;;;;;;0.75;0.75;;;24.80;52.80;;;;;;5016705;28;20076;-63
2021/08/02 00:46:58;;;;;;;1.90;0.70;;;24.70;52.80;;;;;;5023328;28;20044;-62
2021/08/02 00:49:25;;;;;;;2.83;0.80;;;24.70;52.80;;;;;;5024027;28;20034;-62
2021/08/02 00:51:54;;;;;;;0.95;0.70;;;24.70;52.80;;;;;;5016757;28;20116;-65
2021/08/02 00:54:22;;;;;;;1.30;0.80;;;24.70;52.80;;;;;;5022509;28;20029;-62
2021/08/02 00:56:50;;;;;;;1.40;0.80;;;24.70;52.80;;;;;;5021901;28;20181;-65
2021/08/02 00:59:16;;;;;;;0.77;0.70;;;24.70;52.80;;;;;;5016095;28;20113;-62
2021/08/02 01:01:44;;;;;;;1.20;0.82;;;24.70;52.90;;;;;;5019017;28;20201;-63
2021/08/02 01:04:11;;;;;;;1.25;0.70;;;24.70;52.80;;;;;;5019249;28;20022;-62
2021/08/02 01:06:39;;;;;;;0.73;0.60;;;24.70;52.90;;;;;;5013134;28;20040;-63
2021/08/02 01:09:06;;;;;;;1.23;0.80;;;24.70;52.90;;;;;;5020029;28;20112;-63
2021/08/02 01:11:37;;;;;;;1.10;0.90;;;24.70;52.90;;;;;;5029032;28;20030;-64
2021/08/02 01:14:04;;;;;;;0.90;0.70;;;24.70;52.80;;;;;;5029146;28;20029;-65
2021/08/02 01:16:30;;;;;;;1.00;0.75;;;24.70;52.80;;;;;;5021840;28;20032;-65
2021/08/02 01:18:57;;;;;;;0.88;0.80;;;24.70;52.80;;;;;;5013296;28;22251;-62
2021/08/02 01:21:23;;;;;;;0.85;0.65;;;24.70;52.90;;;;;;5014948;28;20030;-61
2021/08/02 01:23:50;;;;;;;1.17;0.70;;;24.70;52.90;;;;;;5018843;28;20036;-65
2021/08/02 01:26:44;;;;;;;0.82;0.70;;;24.70;52.80;;;;;;5017372;28;20062;-63
2021/08/02 01:29:47;;;;;;;1.15;0.80;;;24.70;52.90;;;;;;5011462;28;20036;-62
2021/08/02 01:32:16;;;;;;;1.30;0.90;;;24.60;52.80;;;;;;5013959;28;20290;-62
2021/08/02 01:34:43;;;;;;;0.77;0.70;;;24.70;52.90;;;;;;5022466;28;20029;-63
2021/08/02 01:37:09;;;;;;;1.10;0.80;;;24.70;52.90;;;;;;5014461;28;20046;-63
2021/08/02 01:39:36;;;;;;;0.93;0.70;;;24.60;52.80;;;;;;5014878;28;20159;-64
2021/08/02 01:42:03;;;;;;;0.95;0.70;;;24.60;52.80;;;;;;5012730;28;20038;-61
2021/08/02 01:44:29;;;;;;;0.60;0.60;;;24.60;52.80;;;;;;5011306;28;20461;-66
2021/08/02 01:47:03;;;;;;;1.10;0.80;;;24.60;52.80;;;;;;5015090;28;20021;-63
2021/08/02 01:49:40;;;;;;;0.93;0.70;;;24.60;52.90;;;;;;5023848;28;20025;-61
2021/08/02 01:52:21;;;;;;;0.82;0.70;;;24.60;52.80;;;;;;5013772;28;20056;-63
2021/08/02 01:54:56;;;;;;;0.88;0.70;;;24.60;52.90;;;;;;5015928;28;20080;-63
2021/08/02 01:57:44;;;;;;;1.40;0.90;;;24.60;52.90;;;;;;5022015;28;20033;-63
2021/08/02 02:00:14;;;;;;;0.85;0.68;;;24.60;52.90;;;;;;5011934;28;20029;-61
2021/08/02 02:02:44;;;;;;;1.00;0.70;;;24.60;52.90;;;;;;5019213;28;20147;-62
2021/08/02 02:05:18;;;;;;;0.70;0.70;;;24.60;52.90;;;;;;5024907;28;20034;-61
2021/08/02 02:07:51;;;;;;;0.80;0.70;;;24.60;52.90;;;;;;5018491;28;20538;-62
2021/08/02 02:10:21;;;;;;;1.25;0.70;;;24.60;52.90;;;;;;5022492;28;20158;-63
2021/08/02 02:12:48;;;;;;;0.88;0.80;;;24.60;52.90;;;;;;5013451;28;20046;-62
2021/08/02 02:15:15;;;;;;;1.73;0.90;;;24.60;52.90;;;;;;5011931;28;20069;-62
2021/08/02 02:17:43;;;;;;;0.98;0.77;;;24.60;52.90;;;;;;5024300;28;20120;-61
2021/08/02 02:20:10;;;;;;;1.05;0.75;;;24.60;52.90;;;;;;5028491;28;20029;-66
2021/08/02 02:22:37;;;;;;;0.85;0.60;;;24.60;52.90;;;;;;5024831;28;20057;-61
2021/08/02 02:25:06;;;;;;;0.93;0.70;;;24.60;52.90;;;;;;5026633;28;20033;-62
2021/08/02 02:27:32;;;;;;;1.17;0.87;;;24.60;52.90;;;;;;5019750;28;20105;-63
2021/08/02 02:29:59;;;;;;;0.95;0.80;;;24.60;52.90;;;;;;5017572;28;20029;-62
2021/08/02 02:32:25;;;;;;;1.50;0.80;;;24.60;52.90;;;;;;5019450;28;20042;-61
2021/08/02 02:34:53;;;;;;;1.00;0.90;;;24.60;52.90;;;;;;5016038;28;20044;-62
2021/08/02 02:37:24;;;;;;;0.60;0.60;;;24.60;52.90;;;;;;5022808;28;20516;-62
2021/08/02 02:39:51;;;;;;;0.75;0.68;;;24.60;52.90;;;;;;5017088;28;20053;-61
2021/08/02 02:42:21;;;;;;;0.85;0.70;;;24.60;52.90;;;;;;5010998;28;20040;-62
2021/08/02 02:44:48;;;;;;;1.23;0.70;;;24.50;52.90;;;;;;5013772;28;20057;-64
2021/08/02 02:47:14;;;;;;;0.98;0.60;;;24.50;52.90;;;;;;5019832;28;20057;-63
2021/08/02 02:49:41;;;;;;;0.82;0.70;;;24.50;52.90;;;;;;5025346;28;20473;-63
2021/08/02 02:52:08;;;;;;;0.70;0.70;;;24.50;52.90;;;;;;5024554;28;20049;-61
2021/08/02 02:54:35;;;;;;;1.20;0.80;;;24.50;52.90;;;;;;5026663;28;20120;-67
2021/08/02 02:57:03;;;;;;;1.02;0.70;;;24.50;53.00;;;;;;5025019;28;20555;-63
2021/08/02 02:59:28;;;;;;;0.77;0.70;;;24.50;52.90;;;;;;5020612;28;20025;-65
2021/08/02 03:01:57;;;;;;;0.60;0.60;;;24.50;53.00;;;;;;5016743;28;20555;-62
2021/08/02 03:04:28;;;;;;;0.70;0.60;;;24.50;53.00;;;;;;5014032;28;20061;-63
2021/08/02 03:06:55;;;;;;;1.60;0.70;;;24.50;53.00;;;;;;5023603;28;20081;-64
2021/08/02 03:09:24;;;;;;;0.70;0.60;;;24.50;53.00;;;;;;5023216;28;20437;-63
2021/08/02 03:11:50;;;;;;;0.90;0.70;;;24.50;53.00;;;;;;5017913;28;20032;-63
2021/08/02 03:14:16;;;;;;;0.80;0.65;;;24.50;53.00;;;;;;5027261;28;20022;-63
2021/08/02 03:16:42;;;;;;;0.90;0.70;;;24.50;53.00;;;;;;5025249;28;20084;-62
2021/08/02 03:19:08;;;;;;;0.80;0.60;;;24.50;53.00;;;;;;5028816;28;20033;-62
2021/08/02 03:21:35;;;;;;;0.70;0.70;;;24.50;53.00;;;;;;5023147;28;20100;-63
2021/08/02 03:24:15;;;;;;;1.10;0.90;;;24.50;53.00;;;;;;5027192;28;20095;-66
2021/08/02 03:26:47;;;;;;;1.60;0.80;;;24.50;53.00;;;;;;5026077;28;20029;-63
2021/08/02 03:29:24;;;;;;;0.88;0.70;;;24.50;53.00;;;;;;5020020;28;20021;-61
2021/08/02 03:31:56;;;;;;;0.80;0.63;;;24.40;53.00;;;;;;5022954;28;20034;-62
2021/08/02 03:34:27;;;;;;;0.60;0.60;;;24.40;53.00;;;;;;5020713;28;20099;-63
2021/08/02 03:36:54;;;;;;;1.05;0.70;;;24.50;53.00;;;;;;5024455;28;20445;-64
2021/08/02 03:39:22;;;;;;;0.65;0.65;;;24.40;53.00;;;;;;5015041;28;20120;-61
2021/08/02 03:41:49;;;;;;;0.80;0.70;;;24.40;53.00;;;;;;5015640;28;20056;-64
2021/08/02 03:44:16;;;;;;;1.30;0.85;;;24.40;53.00;;;;;;5014954;28;20119;-63
2021/08/02 03:46:42;;;;;;;0.75;0.60;;;24.40;53.00;;;;;;5020933;28;20065;-65
2021/08/02 03:49:08;;;;;;;1.45;0.60;;;24.40;53.00;;;;;;5026624;28;20029;-64
2021/08/02 03:51:36;;;;;;;1.13;0.70;;;24.50;53.00;;;;;;5021238;28;20369;-66
2021/08/02 03:54:02;;;;;;;0.60;0.60;;;24.40;53.00;;;;;;5024125;28;20117;-64
2021/08/02 03:56:28;;;;;;;0.65;0.63;;;24.40;53.00;;;;;;5021958;28;20109;-66
2021/08/02 03:58:54;;;;;;;1.02;0.75;;;24.40;53.00;;;;;;5019660;28;20103;-61
2021/08/02 04:01:19;;;;;;;0.93;0.70;;;24.40;53.00;;;;;;5017954;28;20060;-62
2021/08/02 04:03:45;;;;;;;1.13;0.70;;;24.40;53.00;;;;;;5017895;28;20028;-61
2021/08/02 04:06:11;;;;;;;0.63;0.60;;;24.50;53.00;;;;;;5018436;28;20064;-62
2021/08/02 04:08:36;;;;;;;1.17;0.70;;;24.40;53.00;;;;;;5021430;28;20109;-62
2021/08/02 04:11:02;;;;;;;1.00;0.90;;;24.40;53.00;;;;;;5012739;28;20207;-65
2021/08/02 04:13:28;;;;;;;0.60;0.60;;;24.40;53.10;;;;;;5018424;28;20127;-63
2021/08/02 04:15:54;;;;;;;0.98;0.88;;;24.40;53.00;;;;;;5016034;28;20030;-63
2021/08/02 04:18:19;;;;;;;0.60;0.60;;;24.40;53.10;;;;;;5017057;28;20116;-62
2021/08/02 04:20:45;;;;;;;1.58;0.77;;;24.40;53.10;;;;;;5020484;28;20129;-63
2021/08/02 04:23:12;;;;;;;1.10;0.80;;;24.40;53.10;;;;;;5021361;28;20041;-63
2021/08/02 04:25:37;;;;;;;0.85;0.80;;;24.40;53.10;;;;;;5024974;28;20060;-64
2021/08/02 04:28:03;;;;;;;0.70;0.70;;;24.40;53.10;;;;;;5018976;28;20080;-65
2021/08/02 04:30:29;;;;;;;1.00;0.70;;;24.40;53.10;;;;;;5017553;28;20033;-61
2021/08/02 04:32:54;;;;;;;0.60;0.60;;;24.30;53.00;;;;;;5017712;28;20032;-67
2021/08/02 04:35:20;;;;;;;0.50;0.50;;;24.40;53.10;;;;;;5014467;28;20112;-64
2021/08/02 04:37:46;;;;;;;0.60;0.60;;;24.40;53.10;;;;;;5019365;28;20151;-64
2021/08/02 04:40:12;;;;;;;1.10;0.80;;;24.30;53.00;;;;;;5014248;28;20114;-64
2021/08/02 04:42:38;;;;;;;1.55;0.82;;;24.30;53.00;;;;;;5015540;28;20029;-63
2021/08/02 04:45:05;;;;;;;1.05;0.77;;;24.40;53.10;;;;;;5017161;28;20045;-63
2021/08/02 04:47:31;;;;;;;0.80;0.60;;;24.40;53.10;;;;;;5018172;28;20516;-65
2021/08/02 04:49:57;;;;;;;0.80;0.60;;;24.30;53.10;;;;;;5024130;28;20044;-62
2021/08/02 04:52:22;;;;;;;0.63;0.60;;;24.30;53.00;;;;;;5023398;28;20044;-63
2021/08/02 04:54:48;;;;;;;0.80;0.70;;;24.30;53.10;;;;;;5030459;28;20207;-62
2021/08/02 04:57:14;;;;;;;0.65;0.63;;;24.40;53.10;;;;;;5018895;28;20389;-62
2021/08/02 04:59:39;;;;;;;1.25;0.70;;;24.30;53.10;;;;;;5009349;28;20026;-62
2021/08/02 05:02:06;;;;;;;0.60;0.60;;;24.30;53.10;;;;;;5005534;28;20196;-64
2021/08/02 05:04:32;;;;;;;1.15;0.80;;;24.30;53.10;;;;;;5015588;28;20045;-62
2021/08/02 05:06:58;;;;;;;0.80;0.70;;;24.30;53.10;;;;;;5010194;28;20034;-64
2021/08/02 05:09:24;;;;;;;1.10;0.80;;;24.40;53.10;;;;;;5012755;28;20582;-63
2021/08/02 05:11:52;;;;;;;0.70;0.70;;;24.30;53.00;;;;;;5022169;28;20029;-66
2021/08/02 05:14:17;;;;;;;0.80;0.80;;;24.30;53.10;;;;;;5009930;28;20044;-62
2021/08/02 05:16:44;;;;;;;0.80;0.63;;;24.30;53.00;;;;;;5012196;28;20160;-63
2021/08/02 05:19:11;;;;;;;1.33;0.70;;;24.30;53.10;;;;;;5004964;28;20395;-61
2021/08/02 05:21:37;;;;;;;1.25;0.73;;;24.30;53.10;;;;;;5008582;28;20142;-64
2021/08/02 05:24:03;;;;;;;0.73;0.70;;;24.30;53.10;;;;;;5027687;28;20033;-63
2021/08/02 05:26:29;;;;;;;0.63;0.63;;;24.30;53.00;;;;;;5011598;28;20337;-63
2021/08/02 05:28:55;;;;;;;0.70;0.70;;;24.30;53.10;;;;;;5014442;28;20026;-61
2021/08/02 05:31:20;;;;;;;0.95;0.63;;;24.30;53.00;;;;;;5020272;28;20049;-62
2021/08/02 05:33:46;;;;;;;1.30;0.80;;;24.30;53.10;;;;;;5018880;28;20036;-62
2021/08/02 05:36:12;;;;;;;1.02;0.80;;;24.30;53.00;;;;;;5009645;28;20037;-63
2021/08/02 05:38:39;;;;;;;1.00;0.80;;;24.30;53.00;;;;;;5013170;28;20053;-66
2021/08/02 05:41:05;;;;;;;1.35;0.82;;;24.30;53.00;;;;;;5025826;28;20033;-65
2021/08/02 05:43:31;;;;;;;1.05;0.88;;;24.30;53.00;;;;;;5020808;28;20091;-65
2021/08/02 05:45:57;;;;;;;0.85;0.70;;;24.30;53.00;;;;;;5018691;28;20042;-62
2021/08/02 05:48:22;;;;;;;1.25;0.85;;;24.30;53.00;;;;;;5024837;28;20077;-61
2021/08/02 05:50:48;;;;;;;1.50;0.80;;;24.30;53.00;;;;;;5020132;28;20026;-63
2021/08/02 05:53:14;;;;;;;0.75;0.70;;;24.30;53.00;;;;;;5023046;28;20096;-65
2021/08/02 05:55:39;;;;;;;1.30;0.90;;;24.30;53.00;;;;;;5021032;28;20475;-61
2021/08/02 05:58:05;;;;;;;1.58;0.80;;;24.30;53.00;;;;;;5016847;28;20491;-63
2021/08/02 06:00:30;;;;;;;1.20;0.73;;;24.30;53.00;;;;;;5021671;28;20053;-61
2021/08/02 06:02:56;;;;;;;1.05;0.73;;;24.30;53.00;;;;;;5014357;28;20041;-63
2021/08/02 06:05:22;;;;;;;1.20;0.80;;;24.30;53.00;;;;;;5016538;28;20112;-61
2021/08/02 06:07:47;;;;;;;0.98;0.70;;;24.30;53.00;;;;;;5019761;28;20918;-62
2021/08/02 06:10:13;;;;;;;1.40;0.93;;;24.20;53.00;;;;;;5025454;28;20032;-65
2021/08/02 06:12:39;;;;;;;2.00;0.93;;;24.20;53.00;;;;;;5023648;28;20407;-66
2021/08/02 06:15:05;;;;;;;1.13;0.90;;;24.20;53.00;;;;;;5024425;28;20045;-65
2021/08/02 06:17:31;;;;;;;1.48;0.70;;;24.20;53.00;;;;;;5029063;28;20065;-63
2021/08/02 06:19:57;;;;;;;1.13;0.80;;;24.20;53.00;;;;;;5028432;28;20064;-65
2021/08/02 06:22:22;;;;;;;1.38;1.00;;;24.20;53.00;;;;;;5021874;28;20044;-62
2021/08/02 06:24:48;;;;;;;1.27;0.90;;;24.20;53.00;;;;;;5022438;28;20084;-65
2021/08/02 06:27:14;;;;;;;0.70;0.70;;;24.20;53.00;;;;;;5015785;28;20365;-62
2021/08/02 06:29:39;;;;;;;1.63;0.90;;;24.20;53.00;;;;;;5011817;28;20058;-64
2021/08/02 06:32:06;;;;;;;1.15;0.80;;;24.30;53.00;;;;;;5030506;28;20083;-61
2021/08/02 06:34:32;;;;;;;1.02;0.85;;;24.20;53.00;;;;;;5027692;28;20075;-64
2021/08/02 06:36:58;;;;;;;1.38;0.85;;;24.20;53.00;;;;;;5014096;28;20108;-63
2021/08/02 06:39:23;;;;;;;1.70;1.00;;;24.20;53.00;;;;;;5011513;28;20042;-63
2021/08/02 06:41:49;;;;;;;1.20;0.80;;;24.20;53.00;;;;;;5019645;28;20033;-67
2021/08/02 06:44:15;;;;;;;1.13;0.93;;;24.20;53.00;;;;;;5027081;28;20030;-63
2021/08/02 06:46:40;;;;;;;1.02;0.80;;;24.20;53.00;;;;;;5025734;28;20084;-61
2021/08/02 06:49:06;;;;;;;0.90;0.80;;;24.20;53.00;;;;;;5013760;28;20038;-61
2021/08/02 06:51:32;;;;;;;1.23;0.90;;;24.20;53.00;;;;;;5029149;28;20060;-64
2021/08/02 06:53:57;;;;;;;1.45;0.90;;;24.20;53.00;;;;;;5026742;28;20026;-63
2021/08/02 06:56:23;;;;;;;0.80;0.80;;;24.20;53.00;;;;;;5022561;28;20037;-63
2021/08/02 06:58:49;;;;;;;1.00;0.80;;;24.20;53.00;;;;;;5027189;28;20167;-63
2021/08/02 07:01:15;;;;;;;1.05;0.80;;;24.20;53.00;;;;;;5022464;28;20144;-62
2021/08/02 07:03:40;;;;;;;1.35;0.90;;;24.20;53.00;;;;;;5017538;28;20493;-66
2021/08/02 07:06:06;;;;;;;0.73;0.70;;;24.20;53.00;;;;;;5012353;28;20087;-62
2021/08/02 07:08:32;;;;;;;1.00;0.80;;;24.20;53.50;;;;;;5024031;28;20617;-62
2021/08/02 07:10:58;;;;;;;1.33;1.00;;;24.20;53.00;;;;;;5019523;28;20105;-63
2021/08/02 07:13:24;;;;;;;1.10;0.80;;;24.20;53.00;;;;;;5022334;28;20837;-65
2021/08/02 07:15:49;;;;;;;1.33;0.80;;;24.20;53.00;;;;;;5023127;28;20025;-63
2021/08/02 07:18:15;;;;;;;1.00;0.80;;;24.20;53.10;;;;;;5019854;28;20121;-62
2021/08/02 07:20:40;;;;;;;0.80;0.80;;;24.20;53.10;;;;;;5025167;28;20049;-64
2021/08/02 07:23:06;;;;;;;1.17;0.82;;;24.20;53.60;;;;;;5020666;28;20113;-63
2021/08/02 07:25:32;;;;;;;1.38;0.90;;;24.20;53.10;;;;;;5023603;28;20425;-63
2021/08/02 07:27:58;;;;;;;1.27;1.00;;;24.20;53.00;;;;;;5020907;28;20049;-66
2021/08/02 07:30:24;;;;;;;1.00;0.82;;;24.20;53.00;;;;;;5008794;28;20038;-62
2021/08/02 07:32:49;;;;;;;2.03;0.90;;;24.10;53.00;;;;;;5007817;28;20405;-63
2021/08/02 07:35:15;;;;;;;1.25;0.93;;;24.20;53.10;;;;;;5021525;28;20037;-63
2021/08/02 07:37:42;;;;;;;1.00;0.80;;;24.10;53.00;;;;;;5019881;28;20589;-63
2021/08/02 07:40:09;;;;;;;1.70;0.90;;;24.20;53.10;;;;;;5014229;28;20022;-64
2021/08/02 07:42:34;;;;;;;0.93;0.77;;;24.20;53.10;;;;;;5023184;28;20037;-63
2021/08/02 07:45:00;;;;;;;1.05;0.85;;;24.20;53.10;;;;;;5015901;28;20120;-65
2021/08/02 07:47:26;;;;;;;1.20;0.85;;;24.20;53.10;;;;;;5009451;28;20041;-62
2021/08/02 07:49:52;;;;;;;1.08;0.80;;;24.20;53.10;;;;;;5019157;28;20112;-61
2021/08/02 07:52:17;;;;;;;1.20;0.80;;;24.20;53.10;;;;;;5018964;28;20033;-63
2021/08/02 07:54:43;;;;;;;1.10;0.88;;;24.20;53.10;;;;;;5020056;28;20128;-63
2021/08/02 07:57:08;;;;;;;1.00;0.90;;;24.20;53.10;;;;;;5019710;28;20085;-62
2021/08/02 07:59:35;;;;;;;1.48;1.00;;;24.20;53.20;;;;;;5018557;28;20056;-65
2021/08/02 08:02:01;;;;;;;1.30;0.93;;;24.10;53.10;;;;;;5024089;28;20148;-64
2021/08/02 08:04:26;;;;;;;1.80;1.00;;;24.20;53.20;;;;;;5024173;28;20040;-63
2021/08/02 08:06:53;;;;;;;1.08;0.90;;;24.10;53.10;;;;;;5017637;28;20468;-62
2021/08/02 08:09:18;;;;;;;1.42;1.23;;;24.10;53.10;;;;;;5026385;28;20028;-63
2021/08/02 08:11:44;;;;;;;1.25;0.80;;;24.20;53.20;;;;;;5018322;28;20033;-66
2021/08/02 08:14:10;;;;;;;1.27;0.93;;;24.10;53.10;;;;;;5018048;28;20033;-62
2021/08/02 08:16:37;;;;;;;1.25;0.98;;;24.20;53.20;;;;;;5023082;28;20029;-64
2021/08/02 08:19:02;;;;;;;1.55;1.00;;;24.10;53.10;;;;;;5011643;28;20034;-62
2021/08/02 08:21:28;;;;;;;1.45;1.00;;;24.10;53.10;;;;;;5023883;28;20184;-62
2021/08/02 08:23:55;;;;;;;2.13;1.10;;;24.10;53.10;;;;;;5011291;28;20465;-61
2021/08/02 08:26:21;;;;;;;0.82;0.77;;;24.10;53.10;;;;;;5022507;28;20029;-64
2021/08/02 08:28:47;;;;;;;1.23;0.90;;;24.20;53.20;;;;;;5023025;28;20474;-63
2021/08/02 08:31:12;;;;;;;1.30;1.00;;;24.20;53.20;;;;;;5023986;28;20124;-66
2021/08/02 08:33:38;;;;;;;1.55;0.90;;;24.10;53.10;;;;;;5024538;28;20037;-62
2021/08/02 08:36:04;;;;;;;2.00;1.10;;;24.10;53.10;;;;;;5024109;28;20080;-63
2021/08/02 08:38:29;;;;;;;0.93;0.80;;;24.10;53.10;;;;;;5025479;28;20052;-65
2021/08/02 08:40:55;;;;;;;1.65;1.00;;;24.10;53.20;;;;;;5023306;28;20376;-66
2021/08/02 08:43:21;;;;;;;1.20;1.08;;;24.10;53.60;;;;;;5019423;28;20099;-63
2021/08/02 08:45:47;;;;;;;1.20;1.00;;;24.10;53.10;;;;;;5021750;28;20029;-62
2021/08/02 08:48:13;;;;;;;1.95;1.10;;;24.10;53.10;;;;;;5024062;28;20024;-63
2021/08/02 08:50:41;;;;;;;1.48;0.88;;;24.10;53.10;;;;;;5025312;28;20145;-65
2021/08/02 08:53:10;;;;;;;1.73;1.00;;;24.10;53.10;;;;;;5017725;28;20030;-66
2021/08/02 08:55:41;;;;;;;1.00;0.80;;;24.10;53.10;;;;;;5041508;28;20484;-62
2021/08/02 08:58:06;;;;;;;1.50;0.90;;;24.10;53.10;;;;;;5024064;28;20041;-64
2021/08/02 09:00:34;;;;;;;1.20;0.90;;;24.10;53.10;;;;;;5021904;28;20037;-63
2021/08/02 09:03:14;;;;;;;1.13;0.80;;;24.10;53.10;;;;;;5013479;28;20040;-62
2021/08/02 09:05:40;;;;;;;1.42;1.00;;;24.10;53.10;;;;;;5019553;28;20072;-65
2021/08/02 09:08:12;;;;;;;1.20;0.98;;;24.10;53.30;;;;;;5025017;28;20025;-63
2021/08/02 09:10:38;;;;;;;1.52;0.90;;;24.20;53.20;;;;;;5025364;28;20025;-62
2021/08/02 09:13:08;;;;;;;2.00;0.95;;;24.20;53.40;;;;;;5019678;28;20026;-64
2021/08/02 09:15:37;;;;;;;1.50;1.10;;;24.20;53.70;;;;;;5023216;28;20524;-63
2021/08/02 09:18:04;;;;;;;;;;;24.20;53.60;;;;;;5023260;28;20132;-63
2021/08/02 09:20:30;;;;;;;1.75;1.02;;;24.20;53.50;;;;;;5014018;28;19909;-63
2021/08/02 09:23:09;;;;;;;1.55;0.90;;;24.20;53.40;;;;;;5036399;28;20049;-62
2021/08/02 09:25:43;;;;;;;1.87;0.97;;;24.10;53.40;;;;;;5022209;28;20075;-66
2021/08/02 09:28:14;;;;;;;1.58;0.95;;;24.10;53.30;;;;;;5017630;28;20178;-62
2021/08/02 09:31:01;;;;;;;1.60;1.10;;;24.20;53.40;;;;;;5020588;28;20029;-64
2021/08/02 09:33:42;;;;;;;1.08;0.93;;;24.10;53.40;;;;;;5018865;28;20014;-63
2021/08/02 09:36:07;;;;;;;1.42;1.00;;;24.20;53.40;;;;;;5016805;28;20025;-64
2021/08/02 09:38:33;;;;;;;1.35;1.00;;;24.10;53.30;;;;;;5021986;28;20037;-61
2021/08/02 09:40:59;;;;;;;2.85;1.13;;;24.20;53.40;;;;;;5020467;28;20492;-62
2021/08/02 09:43:29;;;;;;;1.95;1.23;;;24.20;52.80;;;;;;5023290;28;20043;-61
2021/08/02 09:46:00;;;;;;;2.17;1.42;;;24.20;52.30;;;;;;5018938;28;20025;-63
2021/08/02 09:48:36;;;;;;;2.40;1.52;;;24.20;52.00;;;;;;5017001;28;20049;-60
2021/08/02 09:51:07;;;;;;;2.40;1.60;;;24.10;51.90;;;;;;5020526;28;20025;-63
2021/08/02 09:53:54;;;;;;;2.70;1.63;;;24.20;52.00;;;;;;5017851;28;20030;-63
2021/08/02 09:56:22;;;;;;;2.85;1.40;;;24.10;52.00;;;;;;5019118;28;20124;-61
2021/08/02 09:58:48;;;;;;;2.10;1.30;;;24.10;51.80;;;;;;5019231;28;20017;-62
2021/08/02 10:01:16;;;;;;;2.42;1.63;;;24.10;51.50;;;;;;5013441;28;20045;-61
2021/08/02 10:03:42;;;;;;;2.05;1.40;;;24.10;52.00;;;;;;5016613;28;20102;-62
2021/08/02 10:06:10;;;;;;;2.17;1.40;;;24.10;51.40;;;;;;5011704;28;20087;-64
2021/08/02 10:08:36;;;;;;;2.42;1.45;;;24.10;51.30;;;;;;5023845;28;20044;-60
2021/08/02 10:11:03;;;;;;;2.20;1.30;;;24.10;51.20;;;;;;5022321;28;20041;-61
2021/08/02 10:13:35;;;;;;;2.45;1.42;;;24.10;51.10;;;;;;5021021;28;20026;-63
2021/08/02 10:16:04;;;;;;;2.75;1.67;;;24.10;50.90;;;;;;5022124;28;20060;-61
2021/08/02 10:18:31;;;;;;;2.00;1.38;;;24.10;50.90;;;;;;5017503;28;20377;-61
2021/08/02 10:21:12;;;;;;;2.40;1.42;;;24.10;51.00;;;;;;5005164;28;20053;-61
2021/08/02 10:23:39;;;;;;;2.42;1.52;;;24.10;50.90;;;;;;5017231;28;20039;-64
2021/08/02 10:26:27;;;;;;;2.47;1.58;;;24.10;51.00;;;;;;5021566;28;20041;-62
2021/08/02 10:29:02;;;;;;;2.70;1.70;;;24.10;51.00;;;;;;5013338;28;20061;-64
2021/08/02 10:31:28;;;;;;;2.17;1.38;;;24.10;51.20;;;;;;5016050;28;20151;-61
2021/08/02 10:33:55;;;;;;;2.60;1.50;;;24.10;50.30;;;;;;5012543;28;20033;-64
2021/08/02 10:36:22;;;;;;;2.97;1.90;;;24.10;50.60;;;;;;5018307;28;20048;-63
2021/08/02 10:38:50;;;;;;;2.67;1.80;;;24.10;50.30;;;;;;5019361;28;20682;-62
2021/08/02 10:41:27;;;;;;;3.08;1.98;;;24.00;49.60;;;;;;5024803;28;20131;-62
2021/08/02 10:43:54;;;;;;;3.10;1.90;;;24.00;50.20;;;;;;5025600;28;20033;-62
2021/08/02 10:46:22;;;;;;;2.97;1.63;;;23.90;50.30;;;;;;5023618;28;20069;-66
2021/08/02 10:48:49;;;;;;;3.47;1.50;;;23.90;50.60;;;;;;5023953;28;20024;-64
2021/08/02 10:51:24;;;;;;;2.92;1.50;;;23.90;50.70;;;;;;5026640;28;20518;-63
2021/08/02 10:54:01;;;;;;;3.15;1.35;;;24.00;50.80;;;;;;5027655;28;20075;-62
2021/08/02 10:56:31;;;;;;;2.17;1.38;;;24.00;50.90;;;;;;5026576;28;20120;-62
2021/08/02 10:58:57;;;;;;;2.22;1.30;;;24.00;51.00;;;;;;5014867;28;20200;-62
2021/08/02 11:01:27;;;;;;;2.03;1.20;;;24.10;51.10;;;;;;5015071;28;20431;-62
2021/08/02 11:03:57;;;;;;;2.45;1.27;;;24.00;51.10;;;;;;5019279;28;20040;-60
2021/08/02 11:06:27;;;;;;;2.03;1.10;;;24.10;51.30;;;;;;5035475;28;20171;-64
2021/08/02 11:08:55;;;;;;;1.83;1.10;;;24.10;51.40;;;;;;5020241;28;20041;-61
2021/08/02 11:11:30;;;;;;;1.83;1.25;;;24.10;51.50;;;;;;5013123;28;20618;-62
2021/08/02 11:14:12;;;;;;;1.77;1.27;;;24.10;51.50;;;;;;5019745;28;20087;-60
2021/08/02 11:16:49;;;;;;;2.35;1.30;;;24.20;51.60;;;;;;5023866;28;20104;-61
2021/08/02 11:19:16;;;;;;;1.90;1.13;;;24.20;51.60;;;;;;5014247;28;20044;-62
2021/08/02 11:21:42;;;;;;;1.85;1.35;;;24.20;51.70;;;;;;5016688;28;20037;-65
2021/08/02 11:24:12;;;;;;;1.90;1.20;;;24.20;51.80;;;;;;5017272;28;20576;-62
2021/08/02 11:26:56;;;;;;;2.40;1.35;;;24.30;51.80;;;;;;5013952;28;20021;-66
2021/08/02 11:29:27;;;;;;;2.05;1.20;;;24.30;51.80;;;;;;5011739;28;20022;-63
2021/08/02 11:32:10;;;;;;;2.00;1.35;;;24.30;51.70;;;;;;5027130;28;20123;-62
2021/08/02 11:34:41;;;;;;;2.28;1.42;;;24.40;51.70;;;;;;5028354;28;20025;-63
2021/08/02 11:37:06;;;;;;;1.95;1.40;;;24.40;51.60;;;;;;5023083;28;20086;-63
2021/08/02 11:39:37;;;;;;;2.95;1.77;;;24.50;51.60;;;;;;5018101;28;20029;-66
2021/08/02 11:42:14;;;;;;;2.63;1.42;;;24.50;51.60;;;;;;5020038;28;20029;-62
2021/08/02 11:44:51;;;;;;;2.03;1.30;;;24.50;51.60;;;;;;5027475;28;20033;-64
2021/08/02 11:47:19;;;;;;;2.10;1.50;;;24.60;51.60;;;;;;5020477;28;20463;-62
2021/08/02 11:49:45;;;;;;;4.10;1.38;;;24.60;51.60;;;;;;5024274;28;20033;-63
2021/08/02 11:52:16;;;;;;;2.67;1.30;;;24.60;51.50;;;;;;5023386;28;20048;-63
2021/08/02 11:54:44;;;;;;;1.60;1.20;;;24.60;51.50;;;;;;5014804;28;20108;-64
2021/08/02 11:57:20;;;;;;;2.73;1.30;;;24.60;51.60;;;;;;5039764;22;20135;-73
2021/08/02 11:59:57;;;;;;;2.15;1.40;;;24.70;51.70;;;;;;5003869;28;20109;-75
2021/08/02 12:02:30;;;;;;;1.95;1.30;;;24.70;51.80;;;;;;5005355;22;20170;-65
2021/08/02 12:04:55;;;;;;;2.38;1.60;;;24.70;51.80;;;;;;4984449;28;20216;-63
2021/08/02 12:07:27;;;;;;;2.08;1.30;;;24.80;51.70;;;;;;5033161;22;20802;-63
2021/08/02 12:09:53;;;;;;;1.83;1.23;;;24.80;51.70;;;;;;4995101;28;20029;-63
2021/08/02 12:12:23;;;;;;;2.60;1.40;;;24.80;51.60;;;;;;5012220;28;20026;-66
2021/08/02 12:14:50;;;;;;;2.30;1.30;;;24.80;51.60;;;;;;5018574;28;20044;-64
2021/08/02 12:17:16;;;;;;;2.47;1.38;;;24.80;51.50;;;;;;5018144;28;20025;-63
2021/08/02 12:19:48;;;;;;;2.10;1.30;;;24.90;51.50;;;;;;5012098;28;20030;-63
2021/08/02 12:22:15;;;;;;;1.65;1.20;;;24.90;51.60;;;;;;5018115;28;20033;-64
2021/08/02 12:24:58;;;;;;;1.65;1.15;;;24.90;51.50;;;;;;5008979;28;20034;-64
2021/08/02 12:27:25;;;;;;;1.90;1.30;;;24.90;51.50;;;;;;5018989;28;20392;-63
2021/08/02 12:30:04;;;;;;;2.38;1.23;;;25.00;51.50;;;;;;5015425;28;20652;-64
2021/08/02 12:32:36;;;;;;;1.73;1.20;;;25.00;51.50;;;;;;5011524;28;20084;-66
2021/08/02 12:35:03;;;;;;;1.85;1.20;;;25.00;51.50;;;;;;5018466;28;20032;-62
2021/08/02 12:37:29;;;;;;;1.38;1.10;;;25.00;51.50;;;;;;5018847;28;20025;-65
2021/08/02 12:39:55;;;;;;;2.03;1.10;;;25.10;51.60;;;;;;5015113;28;20030;-64
2021/08/02 12:42:25;;;;;;;1.90;1.45;;;25.10;51.60;;;;;;5011853;28;20211;-66
2021/08/02 12:44:52;;;;;;;2.35;1.20;;;25.10;51.60;;;;;;5017557;28;20034;-63
2021/08/02 12:47:17;;;;;;;2.30;1.40;;;25.10;51.50;;;;;;5019651;28;20136;-64
2021/08/02 12:49:43;;;;;;;2.03;1.15;;;25.20;51.60;;;;;;5023045;28;20108;-65
2021/08/02 12:52:10;;;;;;;2.08;1.40;;;25.20;51.50;;;;;;5022726;28;20029;-66
2021/08/02 12:54:35;;;;;;;1.92;1.33;;;25.30;51.60;;;;;;5020961;28;20550;-63
2021/08/02 12:57:01;;;;;;;2.10;1.20;;;25.20;51.40;;;;;;5019320;28;20033;-64
2021/08/02 12:59:27;;;;;;;2.60;1.33;;;25.30;51.50;;;;;;5025018;28;20182;-64
2021/08/02 13:01:52;;;;;;;1.85;1.20;;;25.30;51.40;;;;;;5021599;28;20037;-63
2021/08/02 13:04:18;;;;;;;2.08;1.40;;;25.30;51.40;;;;;;5017929;28;20153;-61
2021/08/02 13:06:43;;;;;;;2.28;1.20;;;25.30;51.40;;;;;;5016087;28;20362;-64